createdAt,value
2019-03-24T00:02:04.364Z,102137.66
2019-03-24T00:04:28.847Z,102140.61
2019-03-24T00:06:53.460Z,102151.05
2019-03-24T00:09:17.870Z,102145.54
2019-03-24T00:11:42.379Z,102145.92
2019-03-24T00:14:06.977Z,102156.53
2019-03-24T00:16:31.361Z,102150.62
2019-03-24T00:18:55.856Z,102150.55
2019-03-24T00:21:20.496Z,102153.77
2019-03-24T00:23:44.920Z,102156.31
2019-03-24T00:26:09.474Z,102154.49
2019-03-24T00:28:34.166Z,102156.52
2019-03-24T00:30:58.649Z,102158.01
2019-03-24T00:33:23.132Z,102149.72
2019-03-24T00:35:47.536Z,102156.30
2019-03-24T00:38:11.975Z,102157.81
2019-03-24T00:40:36.383Z,102157.20
2019-03-24T00:43:00.821Z,102160.03
2019-03-24T00:45:25.244Z,102154.77
2019-03-24T00:47:49.786Z,102159.39
2019-03-24T00:50:14.215Z,102156.41
2019-03-24T00:52:38.771Z,102155.34
2019-03-24T00:55:03.385Z,102149.20
2019-03-24T00:57:27.795Z,102147.93
2019-03-24T00:59:52.254Z,102143.99
2019-03-24T01:02:16.681Z,102141.13
2019-03-24T01:04:41.273Z,102141.73
2019-03-24T01:07:06.003Z,102140.69
2019-03-24T01:09:30.583Z,102132.73
2019-03-24T01:11:55.004Z,102133.38
2019-03-24T01:14:19.520Z,102133.34
2019-03-24T01:16:44.016Z,102135.26
2019-03-24T01:19:08.605Z,102144.00
2019-03-24T01:21:33.063Z,102136.50
2019-03-24T01:23:57.495Z,102126.56
2019-03-24T01:26:21.897Z,102130.36
2019-03-24T01:28:46.330Z,102132.42
2019-03-24T01:31:10.811Z,102130.85
2019-03-24T01:33:35.237Z,102121.70
2019-03-24T01:35:59.675Z,102120.52
2019-03-24T01:38:24.080Z,102122.53
2019-03-24T01:40:48.526Z,102133.23
2019-03-24T01:43:13.015Z,102129.55
2019-03-24T01:45:37.523Z,102122.00
2019-03-24T01:48:01.933Z,102123.08
2019-03-24T01:50:26.526Z,102119.50
2019-03-24T01:52:51.075Z,102116.86
2019-03-24T01:55:15.602Z,102115.76
2019-03-24T01:57:40.071Z,102114.45
2019-03-24T02:00:08.055Z,102116.41
2019-03-24T02:02:32.536Z,102112.10
2019-03-24T02:04:56.961Z,102108.01
2019-03-24T02:07:21.430Z,102103.77
2019-03-24T02:09:45.883Z,102108.89
2019-03-24T02:12:10.363Z,102111.48
2019-03-24T02:14:34.800Z,102110.55
2019-03-24T02:16:59.397Z,102112.58
2019-03-24T02:19:23.786Z,102111.78
2019-03-24T02:21:48.304Z,102111.34
2019-03-24T02:24:12.784Z,102109.47
2019-03-24T02:26:37.284Z,102097.36
2019-03-24T02:29:01.703Z,102102.36
2019-03-24T02:31:26.205Z,102103.25
2019-03-24T02:33:50.622Z,102097.72
2019-03-24T02:36:15.235Z,102104.55
2019-03-24T02:38:39.649Z,102094.38
2019-03-24T02:41:04.146Z,102101.99
2019-03-24T02:43:28.559Z,102096.14
2019-03-24T02:45:52.995Z,102097.58
2019-03-24T02:48:17.395Z,102097.52
2019-03-24T02:50:41.912Z,102089.18
2019-03-24T02:53:06.476Z,102093.67
2019-03-24T02:55:30.917Z,102099.14
2019-03-24T02:57:55.331Z,102096.43
2019-03-24T03:00:19.890Z,102092.02
2019-03-24T03:02:44.367Z,102087.65
2019-03-24T03:05:09.327Z,102088.02
2019-03-24T03:07:33.817Z,102087.56
2019-03-24T03:09:58.264Z,102084.98
2019-03-24T03:12:22.668Z,102084.37
2019-03-24T03:14:47.082Z,102090.45
2019-03-24T03:17:11.653Z,102086.98
2019-03-24T03:19:36.069Z,102088.16
2019-03-24T03:22:00.504Z,102091.83
2019-03-24T03:24:24.929Z,102088.36
2019-03-24T03:26:49.370Z,102088.45
2019-03-24T03:29:13.788Z,102095.47
2019-03-24T03:31:38.334Z,102082.80
2019-03-24T03:34:02.740Z,102075.25
2019-03-24T03:36:27.206Z,102079.96
2019-03-24T03:38:51.605Z,102071.93
2019-03-24T03:41:16.101Z,102073.51
2019-03-24T03:43:40.529Z,102068.43
2019-03-24T03:46:05.398Z,102067.86
2019-03-24T03:48:29.805Z,102068.53
2019-03-24T03:50:54.290Z,102068.95
2019-03-24T03:53:18.790Z,102065.53
2019-03-24T03:55:43.204Z,102061.63
2019-03-24T03:58:07.643Z,102053.91
2019-03-24T04:00:33.797Z,102056.57
2019-03-24T04:02:58.247Z,102052.00
2019-03-24T04:05:22.671Z,102061.68
2019-03-24T04:07:47.105Z,102065.61
2019-03-24T04:10:11.651Z,102065.88
2019-03-24T04:12:36.160Z,102061.45
2019-03-24T04:15:00.781Z,102062.83
2019-03-24T04:17:25.348Z,102063.30
2019-03-24T04:19:49.756Z,102057.28
2019-03-24T04:22:14.201Z,102062.31
2019-03-24T04:24:38.610Z,102058.74
2019-03-24T04:27:03.042Z,102051.30
2019-03-24T04:29:27.452Z,102055.09
2019-03-24T04:31:51.888Z,102051.19
2019-03-24T04:34:16.292Z,102055.18
2019-03-24T04:36:40.693Z,102049.81
2019-03-24T04:39:06.758Z,102055.41
2019-03-24T04:41:31.180Z,102056.21
2019-03-24T04:43:55.622Z,102055.98
2019-03-24T04:46:20.297Z,102061.63
2019-03-24T04:48:44.808Z,102050.48
2019-03-24T04:51:09.225Z,102046.74
2019-03-24T04:53:33.657Z,102047.80
2019-03-24T04:55:58.061Z,102044.41
2019-03-24T04:58:22.467Z,102047.08
2019-03-24T05:00:46.875Z,102041.81
2019-03-24T05:03:11.311Z,102046.09
2019-03-24T05:05:35.791Z,102041.62
2019-03-24T05:08:00.671Z,102047.46
2019-03-24T05:10:28.740Z,102048.70
2019-03-24T05:12:53.172Z,102052.42
2019-03-24T05:15:17.582Z,102040.98
2019-03-24T05:17:42.014Z,102042.62
2019-03-24T05:20:07.465Z,102034.93
2019-03-24T05:22:31.909Z,102034.50
2019-03-24T05:24:56.386Z,102032.59
2019-03-24T05:27:20.798Z,102029.94
2019-03-24T05:29:45.297Z,102028.32
2019-03-24T05:32:09.712Z,102025.56
2019-03-24T05:34:34.143Z,102029.06
2019-03-24T05:36:58.552Z,102030.67
2019-03-24T05:39:22.981Z,102032.33
2019-03-24T05:41:47.387Z,102036.16
2019-03-24T05:44:11.823Z,102040.52
2019-03-24T05:46:36.239Z,102031.50
2019-03-24T05:49:00.668Z,102032.34
2019-03-24T05:51:25.117Z,102020.37
2019-03-24T05:53:49.565Z,102013.33
2019-03-24T05:56:14.046Z,102018.38
2019-03-24T05:58:38.486Z,102017.40
2019-03-24T06:01:02.961Z,102015.20
2019-03-24T06:03:27.394Z,102014.55
2019-03-24T06:05:51.879Z,102025.67
2019-03-24T06:08:16.307Z,102013.64
2019-03-24T06:10:44.131Z,102015.85
2019-03-24T06:13:08.547Z,102020.22
2019-03-24T06:15:35.099Z,102016.23
2019-03-24T06:17:59.503Z,102021.89
2019-03-24T06:20:24.006Z,102023.41
2019-03-24T06:22:48.429Z,102022.26
2019-03-24T06:25:12.972Z,102023.42
2019-03-24T06:27:37.369Z,102023.97
2019-03-24T06:30:01.984Z,102023.53
2019-03-24T06:32:26.520Z,102009.63
2019-03-24T06:34:50.945Z,102009.16
2019-03-24T06:37:15.381Z,102001.38
2019-03-24T06:39:39.806Z,102000.92
2019-03-24T06:42:04.281Z,101996.97
2019-03-24T06:44:28.738Z,102003.13
2019-03-24T06:46:53.161Z,102004.66
2019-03-24T06:49:17.584Z,102008.94
2019-03-24T06:51:41.997Z,102005.44
2019-03-24T06:54:06.509Z,101998.25
2019-03-24T06:56:30.918Z,102000.87
2019-03-24T06:58:55.333Z,101997.39
2019-03-24T07:01:19.826Z,102002.50
2019-03-24T07:03:44.316Z,102002.99
2019-03-24T07:06:08.724Z,101995.78
2019-03-24T07:08:33.966Z,101992.22
2019-03-24T07:10:58.400Z,101990.64
2019-03-24T07:13:22.814Z,101992.22
2019-03-24T07:15:47.251Z,101986.27
2019-03-24T07:18:11.789Z,101995.38
2019-03-24T07:20:36.229Z,101997.59
2019-03-24T07:23:00.636Z,102000.37
2019-03-24T07:25:25.219Z,102002.86
2019-03-24T07:27:49.636Z,102005.27
2019-03-24T07:30:14.721Z,101996.16
2019-03-24T07:32:39.116Z,101992.84
2019-03-24T07:35:04.326Z,101996.37
2019-03-24T07:37:28.754Z,101997.15
2019-03-24T07:39:53.166Z,102002.27
2019-03-24T07:42:17.741Z,102005.03
2019-03-24T07:44:42.149Z,102003.45
2019-03-24T07:47:14.402Z,101991.74
2019-03-24T07:49:38.809Z,102000.56
2019-03-24T07:52:03.335Z,101994.73
2019-03-24T07:54:27.731Z,101989.52
2019-03-24T07:56:52.235Z,101985.98
2019-03-24T07:59:16.660Z,101974.78
2019-03-24T08:01:41.136Z,101972.97
2019-03-24T08:04:06.050Z,101962.17
2019-03-24T08:06:30.554Z,101958.92
2019-03-24T08:08:54.973Z,101953.95
2019-03-24T08:11:19.413Z,101962.87
2019-03-24T08:13:53.113Z,101955.10
2019-03-24T08:16:10.011Z,101953.64
2019-03-24T08:18:34.418Z,101960.94
2019-03-24T08:20:58.835Z,101964.16
2019-03-24T08:23:23.348Z,101966.08
2019-03-24T08:25:47.827Z,101962.19
2019-03-24T08:28:12.264Z,101962.52
2019-03-24T08:30:37.422Z,101956.97
2019-03-24T08:33:03.463Z,101950.09
2019-03-24T08:35:27.865Z,101946.25
2019-03-24T08:37:52.421Z,101942.52
2019-03-24T08:40:16.971Z,101943.13
2019-03-24T08:42:41.402Z,101938.50
2019-03-24T08:45:06.852Z,101934.97
2019-03-24T08:47:31.292Z,101936.99
2019-03-24T08:49:55.692Z,101934.84
2019-03-24T08:52:20.192Z,101933.32
2019-03-24T08:54:44.598Z,101932.31
2019-03-24T08:57:09.041Z,101928.79
2019-03-24T08:59:33.453Z,101923.69
2019-03-24T09:01:57.905Z,101926.75
2019-03-24T09:04:22.315Z,101929.52
2019-03-24T09:06:46.741Z,101926.47
2019-03-24T09:09:11.228Z,101923.14
2019-03-24T09:11:35.650Z,101919.06
2019-03-24T09:14:00.089Z,101913.94
2019-03-24T09:16:24.619Z,101906.02
2019-03-24T09:18:52.935Z,101909.93
2019-03-24T09:21:15.372Z,101909.38
2019-03-24T09:23:39.810Z,101911.95
2019-03-24T09:26:04.299Z,101909.36
2019-03-24T09:28:28.805Z,101898.28
2019-03-24T09:30:53.284Z,101892.36
2019-03-24T09:33:17.721Z,101886.48
2019-03-24T09:35:42.130Z,101880.66
2019-03-24T09:38:06.702Z,101870.70
2019-03-24T09:40:33.153Z,101869.73
2019-03-24T09:42:59.723Z,101861.95
2019-03-24T09:45:24.120Z,101860.02
2019-03-24T09:47:48.595Z,101851.31
2019-03-24T09:50:13.136Z,101842.20
2019-03-24T09:52:37.568Z,101840.59
2019-03-24T09:55:01.992Z,101833.11
2019-03-24T09:57:26.421Z,101834.23
2019-03-24T09:59:50.828Z,101839.75
2019-03-24T10:02:15.277Z,101840.91
2019-03-24T10:04:39.683Z,101834.25
2019-03-24T10:07:04.158Z,101820.42
2019-03-24T10:09:28.677Z,101813.44
2019-03-24T10:11:53.084Z,101800.59
2019-03-24T10:14:17.515Z,101796.77
2019-03-24T10:16:42.222Z,101807.66
2019-03-24T10:19:14.041Z,101804.11
2019-03-24T10:21:32.900Z,101796.55
2019-03-24T10:23:57.433Z,101787.22
2019-03-24T10:26:21.849Z,101772.04
2019-03-24T10:28:46.350Z,101773.00
2019-03-24T10:31:10.759Z,101767.89
2019-03-24T10:33:35.184Z,101775.02
2019-03-24T10:35:59.746Z,101780.67
2019-03-24T10:38:24.185Z,101784.09
2019-03-24T10:40:48.703Z,101772.77
2019-03-24T10:43:13.209Z,101778.22
2019-03-24T10:45:37.614Z,101781.78
2019-03-24T10:48:02.115Z,101774.42
2019-03-24T10:50:26.527Z,101775.40
2019-03-24T10:52:50.962Z,101777.53
2019-03-24T10:55:15.506Z,101771.84
2019-03-24T10:57:40.015Z,101762.20
2019-03-24T11:00:07.557Z,101770.59
2019-03-24T11:02:32.000Z,101760.02
2019-03-24T11:04:56.421Z,101763.98
2019-03-24T11:07:21.557Z,101766.70
2019-03-24T11:09:46.585Z,101764.22
2019-03-24T11:12:11.068Z,101759.90
2019-03-24T11:14:35.489Z,101760.77
2019-03-24T11:16:59.890Z,101746.47
2019-03-24T11:19:34.995Z,101750.85
2019-03-24T11:21:50.421Z,101747.69
2019-03-24T11:24:14.849Z,101741.75
2019-03-24T11:26:39.260Z,101740.08
2019-03-24T11:29:03.687Z,101731.19
2019-03-24T11:31:28.338Z,101735.94
2019-03-24T11:33:52.762Z,101727.00
2019-03-24T11:36:17.244Z,101717.77
2019-03-24T11:38:41.677Z,101707.15
2019-03-24T11:41:06.167Z,101702.39
2019-03-24T11:43:30.598Z,101702.30
2019-03-24T11:45:55.009Z,101698.94
2019-03-24T11:48:19.444Z,101697.87
2019-03-24T11:50:43.844Z,101689.48
2019-03-24T11:53:09.834Z,101685.69
2019-03-24T11:55:34.303Z,101685.15
2019-03-24T11:58:05.713Z,101677.98
2019-03-24T12:00:36.826Z,101672.33
2019-03-24T12:03:01.238Z,101672.33
2019-03-24T12:05:25.672Z,101662.22
2019-03-24T12:07:50.073Z,101665.48
2019-03-24T12:10:14.964Z,101658.91
2019-03-24T12:12:39.422Z,101650.02
2019-03-24T12:15:05.499Z,101644.70
2019-03-24T12:17:29.926Z,101639.14
2019-03-24T12:19:57.058Z,101644.44
2019-03-24T12:22:20.536Z,101635.00
2019-03-24T12:24:44.985Z,101637.19
2019-03-24T12:27:09.403Z,101643.11
2019-03-24T12:29:33.915Z,101631.09
2019-03-24T12:31:58.429Z,101628.94
2019-03-24T12:34:22.870Z,101627.44
2019-03-24T12:36:47.285Z,101626.83
2019-03-24T12:39:11.773Z,101624.59
2019-03-24T12:41:36.187Z,101624.05
2019-03-24T12:44:00.628Z,101616.97
2019-03-24T12:46:25.105Z,101615.76
2019-03-24T12:48:49.498Z,101619.23
2019-03-24T12:51:13.935Z,101605.63
2019-03-24T12:53:38.344Z,101611.06
2019-03-24T12:56:02.924Z,101604.00
2019-03-24T12:58:27.331Z,101599.81
2019-03-24T13:00:51.759Z,101589.28
2019-03-24T13:03:16.182Z,101585.47
2019-03-24T13:05:40.750Z,101587.35
2019-03-24T13:08:13.420Z,101578.49
2019-03-24T13:10:37.981Z,101583.97
2019-03-24T13:13:02.396Z,101578.44
2019-03-24T13:15:26.845Z,101576.67
2019-03-24T13:17:51.336Z,101566.20
2019-03-24T13:20:22.526Z,101568.26
2019-03-24T13:22:41.949Z,101565.93
2019-03-24T13:25:07.615Z,101559.61
2019-03-24T13:27:32.110Z,101552.77
2019-03-24T13:29:56.564Z,101548.67
2019-03-24T13:32:21.143Z,101549.82
2019-03-24T13:34:45.657Z,101549.02
2019-03-24T13:37:10.063Z,101547.91
2019-03-24T13:39:34.505Z,101501.16
2019-03-24T13:41:58.994Z,101541.95
2019-03-24T13:44:23.473Z,101549.48
2019-03-24T13:46:47.885Z,101535.77
2019-03-24T13:49:12.294Z,101533.88
2019-03-24T13:51:36.797Z,101527.08
2019-03-24T13:54:01.217Z,101522.42
2019-03-24T13:56:25.829Z,101520.59
2019-03-24T13:58:50.379Z,101515.42
2019-03-24T14:01:15.563Z,101514.68
2019-03-24T14:03:39.968Z,101519.09
2019-03-24T14:06:04.557Z,101508.50
2019-03-24T14:08:28.962Z,101511.66
2019-03-24T14:10:53.474Z,101500.63
2019-03-24T14:13:17.880Z,101499.84
2019-03-24T14:15:42.321Z,101494.73
2019-03-24T14:18:06.785Z,101489.59
2019-03-24T14:20:42.491Z,101488.48
2019-03-24T14:22:57.546Z,101485.39
2019-03-24T14:25:22.044Z,101482.97
2019-03-24T14:27:46.434Z,101487.39
2019-03-24T14:30:11.529Z,101478.43
2019-03-24T14:32:36.018Z,101476.38
2019-03-24T14:35:00.501Z,101482.08
2019-03-24T14:37:25.004Z,101482.08
2019-03-24T14:39:49.636Z,101479.99
2019-03-24T14:42:14.252Z,101478.83
2019-03-24T14:44:38.655Z,101471.85
2019-03-24T14:47:03.209Z,101467.85
2019-03-24T14:49:27.616Z,101467.00
2019-03-24T14:51:52.117Z,101474.66
2019-03-24T14:54:16.525Z,101463.20
2019-03-24T14:56:40.964Z,101461.84
2019-03-24T14:59:05.370Z,101460.65
2019-03-24T15:01:29.822Z,101442.50
2019-03-24T15:03:54.217Z,101448.62
2019-03-24T15:06:18.655Z,101448.95
2019-03-24T15:08:44.173Z,101445.98
2019-03-24T15:11:08.751Z,101438.85
2019-03-24T15:13:33.158Z,101445.48
2019-03-24T15:15:57.595Z,101443.50
2019-03-24T15:18:22.011Z,101438.75
2019-03-24T15:20:46.416Z,101439.93
2019-03-24T15:23:10.917Z,101442.70
2019-03-24T15:25:35.391Z,101446.36
2019-03-24T15:28:00.012Z,101446.61
2019-03-24T15:30:24.423Z,101437.25
2019-03-24T15:32:49.002Z,101438.41
2019-03-24T15:35:13.487Z,101437.23
2019-03-24T15:37:37.970Z,101433.89
2019-03-24T15:40:02.554Z,101433.36
2019-03-24T15:42:27.056Z,101431.20
2019-03-24T15:44:51.527Z,101421.25
2019-03-24T15:47:16.050Z,101427.66
2019-03-24T15:49:40.519Z,101414.67
2019-03-24T15:52:10.963Z,101413.28
2019-03-24T15:54:51.221Z,101402.09
2019-03-24T15:57:15.680Z,101396.34
2019-03-24T15:59:41.564Z,101396.84
2019-03-24T16:02:06.084Z,101407.16
2019-03-24T16:04:30.479Z,101410.64
2019-03-24T16:06:54.905Z,101400.06
2019-03-24T16:09:19.306Z,101395.45
2019-03-24T16:11:43.729Z,101398.87
2019-03-24T16:14:08.153Z,101397.19
2019-03-24T16:16:32.586Z,101400.17
2019-03-24T16:18:56.996Z,101398.55
2019-03-24T16:21:27.858Z,101397.62
2019-03-24T16:23:47.610Z,101393.30
2019-03-24T16:26:12.023Z,101386.23
2019-03-24T16:28:36.517Z,101389.70
2019-03-24T16:31:00.923Z,101384.12
2019-03-24T16:33:25.455Z,101387.81
2019-03-24T16:35:50.037Z,101381.20
2019-03-24T16:38:14.479Z,101375.06
2019-03-24T16:40:41.385Z,101372.76
2019-03-24T16:43:05.445Z,101372.48
2019-03-24T16:45:29.864Z,101375.21
2019-03-24T16:47:54.297Z,101370.57
2019-03-24T16:50:18.772Z,101371.98
2019-03-24T16:52:43.214Z,101369.02
2019-03-24T16:55:08.374Z,101368.23
2019-03-24T16:57:32.811Z,101366.56
2019-03-24T16:59:57.222Z,101364.37
2019-03-24T17:02:21.652Z,101360.91
2019-03-24T17:04:46.133Z,101368.33
2019-03-24T17:07:10.553Z,101360.66
2019-03-24T17:09:34.993Z,101359.49
2019-03-24T17:11:59.462Z,101353.92
2019-03-24T17:14:24.083Z,101353.16
2019-03-24T17:16:48.679Z,101347.05
2019-03-24T17:19:13.118Z,101345.16
2019-03-24T17:21:37.511Z,101354.56
2019-03-24T17:24:01.941Z,101358.23
2019-03-24T17:26:26.412Z,101353.09
2019-03-24T17:28:52.390Z,101358.11
2019-03-24T17:31:16.794Z,101357.05
2019-03-24T17:33:41.237Z,101356.94
2019-03-24T17:36:05.866Z,101351.63
2019-03-24T17:38:30.311Z,101358.56
2019-03-24T17:40:54.778Z,101358.80
2019-03-24T17:43:19.242Z,101355.94
2019-03-24T17:45:43.634Z,101357.91
2019-03-24T17:48:08.155Z,101352.93
2019-03-24T17:50:32.591Z,101351.75
2019-03-24T17:52:57.107Z,101351.91
2019-03-24T17:55:27.496Z,101350.88
2019-03-24T17:57:47.772Z,101352.99
2019-03-24T18:00:16.468Z,101350.12
2019-03-24T18:02:41.063Z,101349.17
2019-03-24T18:05:06.539Z,101350.91
2019-03-24T18:07:30.950Z,101350.77
2019-03-24T18:09:55.432Z,101352.03
2019-03-24T18:12:19.829Z,101352.34
2019-03-24T18:14:44.264Z,101345.89
2019-03-24T18:17:08.736Z,101345.52
2019-03-24T18:19:33.166Z,101342.09
2019-03-24T18:21:57.566Z,101345.36
2019-03-24T18:24:22.009Z,101341.81
2019-03-24T18:26:46.417Z,101334.25
2019-03-24T18:29:10.849Z,101333.02
2019-03-24T18:31:35.261Z,101326.00
2019-03-24T18:33:59.683Z,101333.27
2019-03-24T18:36:25.680Z,101325.24
2019-03-24T18:38:51.336Z,101328.02
2019-03-24T18:41:15.666Z,101325.15
2019-03-24T18:43:40.091Z,101322.19
2019-03-24T18:46:06.527Z,101325.05
2019-03-24T18:48:31.958Z,101323.40
2019-03-24T18:50:56.394Z,101325.34
2019-03-24T18:53:20.793Z,101321.45
2019-03-24T18:55:45.295Z,101317.15
2019-03-24T18:58:09.692Z,101317.02
2019-03-24T19:00:34.251Z,101318.05
2019-03-24T19:02:58.761Z,101320.89
2019-03-24T19:05:23.229Z,101319.80
2019-03-24T19:07:47.603Z,101315.06
2019-03-24T19:10:13.089Z,101305.16
2019-03-24T19:12:37.880Z,101302.91
2019-03-24T19:15:02.462Z,101298.42
2019-03-24T19:17:26.867Z,101297.35
2019-03-24T19:19:51.455Z,101294.09
2019-03-24T19:22:16.054Z,101303.73
2019-03-24T19:24:40.541Z,101304.00
2019-03-24T19:27:05.068Z,101305.33
2019-03-24T19:29:29.473Z,101288.05
2019-03-24T19:31:53.976Z,101293.41
2019-03-24T19:34:18.384Z,101283.78
2019-03-24T19:36:43.171Z,101294.01
2019-03-24T19:39:08.982Z,101288.70
2019-03-24T19:41:33.579Z,101283.20
2019-03-24T19:43:57.991Z,101282.64
2019-03-24T19:46:22.554Z,101273.64
2019-03-24T19:48:46.957Z,101272.56
2019-03-24T19:51:11.406Z,101278.53
2019-03-24T19:53:35.821Z,101280.35
2019-03-24T19:56:00.254Z,101274.88
2019-03-24T19:58:24.662Z,101271.30
2019-03-24T20:00:49.108Z,101270.95
2019-03-24T20:03:13.511Z,101278.63
2019-03-24T20:05:37.941Z,101266.14
2019-03-24T20:08:02.416Z,101267.50
2019-03-24T20:10:26.867Z,101270.45
2019-03-24T20:12:51.267Z,101266.31
2019-03-24T20:15:15.906Z,101266.20
2019-03-24T20:17:40.335Z,101260.23
2019-03-24T20:20:05.699Z,101262.48
2019-03-24T20:22:30.129Z,101252.72
2019-03-24T20:24:54.528Z,101259.95
2019-03-24T20:27:18.963Z,101260.42
2019-03-24T20:29:43.347Z,101258.30
2019-03-24T20:32:07.859Z,101253.80
2019-03-24T20:34:32.266Z,101253.00
2019-03-24T20:36:56.694Z,101251.03
2019-03-24T20:39:21.162Z,101245.13
2019-03-24T20:41:45.582Z,101238.05
2019-03-24T20:44:11.356Z,101238.43
2019-03-24T20:46:36.059Z,101231.74
2019-03-24T20:49:00.471Z,101235.28
2019-03-24T20:51:24.893Z,101220.67
2019-03-24T20:53:49.303Z,101222.26
2019-03-24T20:56:13.821Z,101221.25
2019-03-24T20:58:38.217Z,101219.86
2019-03-24T21:01:02.652Z,101214.77
2019-03-24T21:03:27.095Z,101212.94
2019-03-24T21:05:51.563Z,101208.25
2019-03-24T21:08:16.061Z,101202.91
2019-03-24T21:10:40.554Z,101196.59
2019-03-24T21:13:05.414Z,101200.34
2019-03-24T21:15:29.892Z,101196.42
2019-03-24T21:17:54.327Z,101190.83
2019-03-24T21:20:18.872Z,101193.24
2019-03-24T21:22:43.284Z,101191.22
2019-03-24T21:25:08.524Z,101180.94
2019-03-24T21:27:32.951Z,101169.11
2019-03-24T21:29:58.972Z,101172.31
2019-03-24T21:32:23.390Z,101173.95
2019-03-24T21:34:47.798Z,101168.98
2019-03-24T21:37:12.214Z,101160.75
2019-03-24T21:39:36.621Z,101158.11
2019-03-24T21:42:01.046Z,101156.91
2019-03-24T21:44:25.453Z,101136.55
2019-03-24T21:46:49.859Z,101134.16
2019-03-24T21:49:14.342Z,101141.38
2019-03-24T21:51:38.738Z,101139.13
2019-03-24T21:54:03.158Z,101139.27
2019-03-24T21:56:27.564Z,101133.07
2019-03-24T21:58:52.011Z,101132.56
2019-03-24T22:01:16.400Z,101137.12
2019-03-24T22:03:40.827Z,101137.12
2019-03-24T22:06:05.368Z,101135.36
2019-03-24T22:08:29.894Z,101130.50
2019-03-24T22:10:54.352Z,101132.52
2019-03-24T22:13:18.778Z,101124.34
2019-03-24T22:15:43.195Z,101114.42
2019-03-24T22:18:08.172Z,101111.19
2019-03-24T22:20:32.619Z,101106.70
2019-03-24T22:22:57.059Z,101101.01
2019-03-24T22:25:21.484Z,101108.69
2019-03-24T22:27:45.987Z,101094.25
2019-03-24T22:30:11.014Z,101101.27
2019-03-24T22:32:35.429Z,101101.61
2019-03-24T22:34:59.840Z,101091.34
2019-03-24T22:37:24.253Z,101090.59
2019-03-24T22:39:48.675Z,101083.16
2019-03-24T22:42:13.107Z,101078.37
2019-03-24T22:44:37.617Z,101071.67
2019-03-24T22:47:02.027Z,101068.78
2019-03-24T22:49:26.467Z,101060.70
2019-03-24T22:51:50.893Z,101054.76
2019-03-24T22:54:15.320Z,101055.67
2019-03-24T22:56:39.744Z,101049.27
2019-03-24T22:59:04.209Z,101048.11
2019-03-24T23:01:28.679Z,101040.70
2019-03-24T23:03:53.317Z,101037.42
2019-03-24T23:06:17.782Z,101036.88
2019-03-24T23:08:42.271Z,101023.91
2019-03-24T23:11:06.741Z,101026.86
2019-03-24T23:13:31.239Z,101024.66
2019-03-24T23:15:55.641Z,101017.43
2019-03-24T23:18:20.105Z,101016.67
2019-03-24T23:20:45.468Z,101004.37
2019-03-24T23:23:09.938Z,101003.91
2019-03-24T23:25:34.501Z,101000.17
2019-03-24T23:27:58.984Z,101003.83
2019-03-24T23:30:23.483Z,100988.05
2019-03-24T23:32:47.882Z,100984.37
2019-03-24T23:35:12.388Z,100978.17
2019-03-24T23:37:36.856Z,100981.56
2019-03-24T23:40:01.293Z,100975.50
2019-03-24T23:42:25.764Z,100970.01
2019-03-24T23:44:50.192Z,100973.33
2019-03-24T23:47:14.594Z,100964.26
2019-03-24T23:49:40.652Z,100956.31
2019-03-24T23:52:05.182Z,100957.97
2019-03-24T23:54:29.610Z,100957.67
2019-03-24T23:56:54.021Z,100944.29
2019-03-24T23:59:18.421Z,100939.16
